createdAt,value
2023-05-12T00:00:31.306Z,8.8909
2023-05-12T00:01:32.754Z,8.9170
2023-05-12T00:02:33.349Z,8.9058
2023-05-12T00:03:33.693Z,8.8927
2023-05-12T00:04:34.267Z,8.8858
2023-05-12T00:05:35.053Z,8.8859
2023-05-12T00:06:35.590Z,8.8897
2023-05-12T00:07:35.948Z,8.8945
2023-05-12T00:08:36.545Z,8.8746
2023-05-12T00:09:37.906Z,8.9337
2023-05-12T00:10:38.430Z,8.9571
2023-05-12T00:11:38.681Z,8.9596
2023-05-12T00:12:39.443Z,8.9615
2023-05-12T00:16:40.666Z,8.9503
2023-05-12T00:17:40.916Z,8.9469
2023-05-12T00:18:42.040Z,8.9675
2023-05-12T00:19:43.077Z,8.9591
2023-05-12T00:20:44.023Z,8.9583
2023-05-12T00:21:43.534Z,8.9630
2023-05-12T00:22:44.409Z,8.9456
2023-05-12T00:23:44.782Z,8.9377
2023-05-12T00:24:45.661Z,8.9309
2023-05-12T00:25:45.894Z,8.9495
2023-05-12T00:26:46.530Z,8.9479
2023-05-12T00:27:47.084Z,8.9144
2023-05-12T00:28:47.472Z,8.9182
2023-05-12T00:29:49.402Z,8.9272
2023-05-12T00:33:50.911Z,8.8862
2023-05-12T00:34:51.983Z,8.8812
2023-05-12T00:36:53.212Z,8.8816
2023-05-12T00:41:56.645Z,8.8347
2023-05-12T00:43:57.198Z,8.8464
2023-05-12T00:44:57.582Z,8.8571
2023-05-12T00:45:58.774Z,8.8438
2023-05-12T00:46:59.511Z,8.8292
2023-05-12T00:48:59.918Z,8.8494
2023-05-12T00:50:00.214Z,8.8434
2023-05-12T00:51:00.789Z,8.8432
2023-05-12T00:52:01.425Z,8.8592
2023-05-12T00:53:01.877Z,8.8560
2023-05-12T00:54:02.237Z,8.8428
2023-05-12T00:55:03.666Z,8.8468
2023-05-12T00:56:04.348Z,8.8441
2023-05-12T00:57:04.541Z,8.8362
2023-05-12T00:58:05.403Z,8.8332
2023-05-12T00:59:05.982Z,8.8245
2023-05-12T01:00:07.248Z,8.8279
2023-05-12T01:01:07.899Z,8.8322
2023-05-12T01:02:07.887Z,8.8456
2023-05-12T01:03:08.581Z,8.8562
2023-05-12T01:04:09.694Z,8.8501
2023-05-12T01:09:13.694Z,8.7629
2023-05-12T01:11:14.801Z,8.7711
2023-05-12T01:12:15.687Z,8.8128
2023-05-12T01:13:16.682Z,8.7989
2023-05-12T01:14:17.625Z,8.7999
2023-05-12T01:15:18.521Z,8.7636
2023-05-12T01:16:19.043Z,8.7287
2023-05-12T01:17:19.276Z,8.7235
2023-05-12T01:18:19.936Z,8.7431
2023-05-12T01:19:20.527Z,8.7556
2023-05-12T01:20:21.235Z,8.7547
2023-05-12T01:24:23.772Z,8.7218
2023-05-12T01:25:24.263Z,8.7250
2023-05-12T01:27:25.695Z,8.7342
2023-05-12T01:28:25.952Z,8.7458
2023-05-12T01:29:26.588Z,8.7574
2023-05-12T01:30:26.833Z,8.7443
2023-05-12T01:31:27.962Z,8.7246
2023-05-12T01:32:28.650Z,8.7295
2023-05-12T01:33:29.400Z,8.7379
2023-05-12T01:34:29.768Z,8.7169
2023-05-12T01:35:30.447Z,8.7304
2023-05-12T01:36:30.928Z,8.7399
2023-05-12T01:37:31.017Z,8.7317
2023-05-12T01:38:31.919Z,8.7286
2023-05-12T01:39:32.573Z,8.7364
2023-05-12T01:40:33.319Z,8.7254
2023-05-12T01:41:33.522Z,8.7176
2023-05-12T01:42:34.777Z,8.7115
2023-05-12T01:43:35.234Z,8.6968
2023-05-12T01:44:36.483Z,8.6864
2023-05-12T01:45:37.022Z,8.6775
2023-05-12T01:46:38.438Z,8.6833
2023-05-12T01:47:39.607Z,8.6998
2023-05-12T01:48:39.956Z,8.7152
2023-05-12T01:49:40.688Z,8.7276
2023-05-12T01:50:41.454Z,8.7369
2023-05-12T01:51:42.487Z,8.7480
2023-05-12T01:52:42.882Z,8.7652
2023-05-12T01:53:43.558Z,8.7435
2023-05-12T01:54:43.593Z,8.7243
2023-05-12T01:55:44.803Z,8.7086
2023-05-12T01:56:44.957Z,8.7085
2023-05-12T01:57:46.080Z,8.7194
2023-05-12T01:58:46.621Z,8.7231
2023-05-12T01:59:47.450Z,8.7229
2023-05-12T02:00:48.222Z,8.7585
2023-05-12T02:01:49.565Z,8.7556
2023-05-12T02:02:49.531Z,8.7486
2023-05-12T02:03:49.805Z,8.7665
2023-05-12T02:04:50.977Z,8.7676
2023-05-12T02:05:51.950Z,8.7762
2023-05-12T02:06:52.928Z,8.7932
2023-05-12T02:08:54.345Z,8.7959
2023-05-12T02:09:54.545Z,8.8168
2023-05-12T02:10:56.694Z,8.8322
2023-05-12T02:11:57.543Z,8.8829
2023-05-12T02:12:58.160Z,8.8735
2023-05-12T02:13:58.737Z,8.8486
2023-05-12T02:14:59.676Z,8.8468
2023-05-12T02:15:59.714Z,8.8621
2023-05-12T02:17:00.340Z,8.8329
2023-05-12T02:18:01.140Z,8.8590
2023-05-12T02:19:02.006Z,8.8761
2023-05-12T02:20:02.730Z,8.8811
2023-05-12T02:21:03.635Z,8.8709
2023-05-12T02:22:04.201Z,8.8906
2023-05-12T02:23:04.729Z,8.8817
2023-05-12T02:24:05.925Z,8.8621
2023-05-12T02:25:06.538Z,8.8992
2023-05-12T02:26:06.554Z,8.9158
2023-05-12T02:27:07.345Z,8.9366
2023-05-12T02:28:07.889Z,8.9321
2023-05-12T02:29:08.644Z,8.9076
2023-05-12T02:30:09.313Z,8.9105
2023-05-12T02:31:10.246Z,8.9248
2023-05-12T02:32:11.382Z,8.9058
2023-05-12T02:34:11.858Z,8.9082
2023-05-12T02:38:14.082Z,8.9002
2023-05-12T02:39:15.184Z,8.8887
2023-05-12T02:40:15.255Z,8.8642
2023-05-12T02:41:16.986Z,8.8661
2023-05-12T02:42:17.063Z,8.8810
2023-05-12T02:43:18.489Z,8.8989
2023-05-12T02:44:19.040Z,8.9159
2023-05-12T02:45:19.272Z,8.8874
2023-05-12T02:46:20.051Z,8.8822
2023-05-12T02:47:20.225Z,8.8693
2023-05-12T02:48:20.940Z,8.8617
2023-05-12T02:49:21.631Z,8.8433
2023-05-12T02:50:22.550Z,8.8227
2023-05-12T02:51:22.422Z,8.7921
2023-05-12T02:55:23.940Z,8.7940
2023-05-12T02:56:24.286Z,8.7828
2023-05-12T02:57:25.197Z,8.7736
2023-05-12T02:58:25.537Z,8.7897
2023-05-12T02:59:26.653Z,8.7905
2023-05-12T03:00:27.296Z,8.8206
2023-05-12T03:01:27.532Z,8.8299
2023-05-12T03:02:27.911Z,8.8413
2023-05-12T03:03:28.711Z,8.8345
2023-05-12T03:05:30.110Z,8.8041
2023-05-12T03:08:32.594Z,8.8091
2023-05-12T03:09:33.291Z,8.8412
2023-05-12T03:10:34.030Z,8.8011
2023-05-12T03:11:34.578Z,8.8034
2023-05-12T03:12:34.803Z,8.7940
2023-05-12T03:13:35.132Z,8.8136
2023-05-12T03:14:38.528Z,8.8214
2023-05-12T03:16:37.709Z,8.8254
2023-05-12T03:17:38.059Z,8.8133
2023-05-12T03:18:38.807Z,8.8363
2023-05-12T03:19:39.557Z,8.8358
2023-05-12T03:20:39.721Z,8.8299
2023-05-12T03:21:40.864Z,8.8090
2023-05-12T03:23:41.919Z,8.8043
2023-05-12T03:25:42.706Z,8.8047
2023-05-12T03:26:44.458Z,8.7870
2023-05-12T03:27:45.559Z,8.7940
2023-05-12T03:28:47.037Z,8.7896
2023-05-12T03:29:47.234Z,8.7807
2023-05-12T03:30:47.217Z,8.7747
2023-05-12T03:31:48.403Z,8.7712
2023-05-12T03:33:49.314Z,8.7997
2023-05-12T03:35:51.413Z,8.7626
2023-05-12T03:36:52.056Z,8.7692
2023-05-12T03:37:53.203Z,8.7571
2023-05-12T03:41:54.884Z,8.7346
2023-05-12T03:42:55.105Z,8.7170
2023-05-12T03:43:56.839Z,8.7059
2023-05-12T03:44:57.174Z,8.6768
2023-05-12T03:45:57.750Z,8.6627
2023-05-12T03:46:59.133Z,8.6631
2023-05-12T03:47:59.210Z,8.6617
2023-05-12T03:49:00.041Z,8.6590
2023-05-12T03:50:00.541Z,8.6612
2023-05-12T03:51:01.123Z,8.6414
2023-05-12T03:56:05.253Z,8.5826
2023-05-12T03:57:06.363Z,8.6637
2023-05-12T03:59:07.351Z,8.6824
2023-05-12T04:00:07.434Z,8.6857
2023-05-12T04:01:08.158Z,8.6685
2023-05-12T04:02:09.471Z,8.6572
2023-05-12T04:03:10.008Z,8.6740
2023-05-12T04:04:10.068Z,8.6844
2023-05-12T04:05:10.308Z,8.6684
2023-05-12T04:07:11.513Z,8.7001
2023-05-12T04:08:11.707Z,8.6848
2023-05-12T04:09:12.867Z,8.7206
2023-05-12T04:10:12.950Z,8.7267
2023-05-12T04:11:14.917Z,8.7016
2023-05-12T04:12:15.537Z,8.7398
2023-05-12T04:13:16.726Z,8.7413
2023-05-12T04:15:17.011Z,8.7810
2023-05-12T04:16:17.314Z,8.8034
2023-05-12T04:17:18.637Z,8.8114
2023-05-12T04:18:18.795Z,8.8370
2023-05-12T04:20:20.110Z,8.8452
2023-05-12T04:26:20.547Z,8.8201
2023-05-12T04:27:21.839Z,8.8229
2023-05-12T04:28:22.133Z,8.8159
2023-05-12T04:29:22.182Z,8.8429
2023-05-12T04:30:22.690Z,8.8506
2023-05-12T04:31:23.139Z,8.8732
2023-05-12T04:32:24.757Z,8.8560
2023-05-12T04:33:25.178Z,8.8613
2023-05-12T04:34:25.678Z,8.8755
2023-05-12T04:35:26.360Z,8.8434
2023-05-12T04:36:26.940Z,8.8217
2023-05-12T04:37:27.418Z,8.8135
2023-05-12T04:38:27.792Z,8.8234
2023-05-12T04:42:29.366Z,8.8921
2023-05-12T04:44:30.371Z,8.9533
2023-05-12T04:45:31.538Z,8.9236
2023-05-12T04:46:32.493Z,8.8830
2023-05-12T04:47:32.689Z,8.9278
2023-05-12T04:48:34.183Z,8.9866
2023-05-12T04:49:34.684Z,9.0256
2023-05-12T04:50:35.601Z,8.9793
2023-05-12T04:51:35.812Z,8.9593
2023-05-12T04:52:36.302Z,8.9829
2023-05-12T04:53:37.177Z,8.8980
2023-05-12T04:54:37.635Z,8.9901
2023-05-12T04:55:37.674Z,8.8918
2023-05-12T04:56:38.427Z,8.9509
2023-05-12T04:57:38.912Z,8.9950
2023-05-12T04:58:38.782Z,8.9043
2023-05-12T04:59:41.185Z,8.9692
2023-05-12T05:00:39.928Z,8.9887
2023-05-12T05:01:41.052Z,9.0076
2023-05-12T05:05:43.686Z,8.9922
2023-05-12T05:09:46.451Z,9.1521
2023-05-12T05:10:47.419Z,9.2002
2023-05-12T05:11:48.101Z,9.1582
2023-05-12T05:12:48.735Z,9.1557
2023-05-12T05:13:49.486Z,9.1470
2023-05-12T05:14:50.062Z,9.1662
2023-05-12T05:15:50.278Z,9.2330
2023-05-12T05:16:51.174Z,9.2382
2023-05-12T05:17:52.166Z,9.1255
2023-05-12T05:18:53.018Z,9.2419
2023-05-12T05:19:58.357Z,9.1165
2023-05-12T05:20:58.327Z,9.2289
2023-05-12T05:21:54.618Z,9.2917
2023-05-12T05:22:56.020Z,9.3039
2023-05-12T05:26:58.284Z,9.4780
2023-05-12T05:28:59.801Z,9.4024
2023-05-12T05:30:00.688Z,9.4300
2023-05-12T05:31:01.842Z,9.3827
2023-05-12T05:32:02.536Z,9.3025
2023-05-12T05:33:03.722Z,9.4235
2023-05-12T05:34:04.286Z,9.6669
2023-05-12T05:35:04.987Z,9.6333
2023-05-12T05:36:05.888Z,9.5611
2023-05-12T05:37:07.004Z,9.7122
2023-05-12T05:38:07.657Z,9.8013
2023-05-12T05:39:08.863Z,9.7814
2023-05-12T05:40:09.479Z,9.8208
2023-05-12T05:41:09.642Z,9.6100
2023-05-12T05:42:09.775Z,9.6891
2023-05-12T05:43:10.874Z,9.8268
2023-05-12T05:44:11.936Z,9.9691
2023-05-12T05:45:12.702Z,9.8968
2023-05-12T05:46:13.541Z,10.0848
2023-05-12T05:47:14.124Z,10.0995
2023-05-12T05:48:15.029Z,9.9673
2023-05-12T05:49:16.053Z,9.8161
2023-05-12T05:50:17.055Z,9.9676
2023-05-12T05:51:17.111Z,10.0357
2023-05-12T05:52:17.576Z,10.1714
2023-05-12T05:53:18.481Z,10.5023
2023-05-12T05:54:18.799Z,10.9723
2023-05-12T05:55:19.454Z,10.7044
2023-05-12T05:56:19.488Z,10.4792
2023-05-12T05:58:21.549Z,10.3488
2023-05-12T05:59:22.257Z,10.0959
2023-05-12T06:00:23.294Z,10.0053
2023-05-12T06:01:24.078Z,10.1633
2023-05-12T06:02:24.628Z,10.0003
2023-05-12T06:03:25.358Z,9.9062
2023-05-12T06:04:26.642Z,9.8697
2023-05-12T06:06:27.614Z,9.9005
2023-05-12T06:08:28.406Z,10.0023
2023-05-12T06:09:28.642Z,10.0238
2023-05-12T06:10:29.797Z,10.2046
2023-05-12T06:11:30.445Z,10.4130
2023-05-12T06:12:31.281Z,10.2280
2023-05-12T06:13:31.424Z,10.4291
2023-05-12T06:14:32.491Z,10.3725
2023-05-12T06:15:32.609Z,10.2774
2023-05-12T06:16:34.482Z,10.1863
2023-05-12T06:17:35.493Z,10.4777
2023-05-12T06:18:36.307Z,10.4607
2023-05-12T06:19:37.684Z,10.8139
2023-05-12T06:20:37.936Z,10.6682
2023-05-12T06:21:38.423Z,10.7079
2023-05-12T06:22:38.905Z,10.8517
2023-05-12T06:23:40.075Z,11.0468
2023-05-12T06:24:40.593Z,11.3510
2023-05-12T06:27:43.054Z,11.9439
2023-05-12T06:28:43.649Z,11.7954
2023-05-12T06:29:44.100Z,11.7984
2023-05-12T06:30:44.441Z,11.5006
2023-05-12T06:31:45.293Z,11.5001
2023-05-12T06:32:45.918Z,11.8125
2023-05-12T06:33:47.044Z,11.8357
2023-05-12T06:34:48.161Z,11.5672
2023-05-12T06:35:48.526Z,11.9625
2023-05-12T06:36:49.408Z,12.0298
2023-05-12T06:37:50.266Z,11.9337
2023-05-12T06:38:51.500Z,11.7531
2023-05-12T06:39:52.065Z,11.5072
2023-05-12T06:40:52.964Z,11.9370
2023-05-12T06:41:53.514Z,12.4023
2023-05-12T06:42:54.315Z,12.4164
2023-05-12T06:43:54.681Z,11.7789
2023-05-12T06:44:55.225Z,11.6749
2023-05-12T06:45:55.777Z,11.5068
2023-05-12T06:46:56.927Z,10.9465
2023-05-12T06:47:57.321Z,10.6944
2023-05-12T06:48:57.814Z,10.8741
2023-05-12T06:49:58.829Z,10.9641
2023-05-12T06:50:59.352Z,11.0383
2023-05-12T06:51:59.773Z,11.5345
2023-05-12T06:53:00.984Z,11.6976
2023-05-12T06:54:01.613Z,11.5212
2023-05-12T06:55:02.170Z,11.8061
2023-05-12T06:56:02.997Z,11.9198
2023-05-12T06:57:04.123Z,11.3174
2023-05-12T06:58:05.290Z,11.0240
2023-05-12T06:59:06.633Z,11.8310
2023-05-12T07:00:07.093Z,11.6176
2023-05-12T07:01:08.243Z,14.1751
2023-05-12T07:02:08.287Z,14.1858
2023-05-12T07:08:12.459Z,13.5609
2023-05-12T07:09:13.467Z,14.3438
2023-05-12T07:10:14.444Z,13.4875
2023-05-12T07:11:15.412Z,12.0689
2023-05-12T07:12:16.635Z,12.4138
2023-05-12T07:13:17.704Z,12.2712
2023-05-12T07:14:18.705Z,11.9674
2023-05-12T07:15:19.961Z,11.7514
2023-05-12T07:16:20.395Z,11.2109
2023-05-12T07:17:21.509Z,11.0373
2023-05-12T07:18:22.557Z,11.0880
2023-05-12T07:19:22.566Z,11.3582
2023-05-12T07:20:23.728Z,11.8522
2023-05-12T07:21:24.783Z,11.6757
2023-05-12T07:22:25.644Z,11.3569
2023-05-12T07:23:26.706Z,11.5657
2023-05-12T07:24:27.902Z,11.9234
2023-05-12T07:25:28.453Z,12.2149
2023-05-12T07:29:30.657Z,14.2737
2023-05-12T07:30:31.813Z,14.2540
2023-05-12T07:31:31.851Z,14.2235
2023-05-12T07:32:32.039Z,15.3474
2023-05-12T07:33:33.278Z,16.0056
2023-05-12T07:34:34.263Z,16.0179
2023-05-12T07:35:35.261Z,15.0139
2023-05-12T07:36:36.297Z,13.7679
2023-05-12T07:37:37.277Z,14.2356
2023-05-12T07:38:38.403Z,12.6378
2023-05-12T07:39:39.485Z,12.8670
2023-05-12T07:40:40.814Z,12.8693
2023-05-12T07:41:41.857Z,12.6817
2023-05-12T07:42:42.951Z,14.0073
2023-05-12T07:43:43.803Z,15.6158
2023-05-12T07:44:44.819Z,17.0470
2023-05-12T07:45:45.060Z,15.0581
2023-05-12T07:46:46.210Z,15.0006
2023-05-12T07:47:47.473Z,14.0275
2023-05-12T07:48:47.463Z,15.4892
2023-05-12T07:49:48.438Z,14.7979
2023-05-12T07:50:49.698Z,15.6043
2023-05-12T07:55:52.832Z,13.5535
2023-05-12T07:56:53.876Z,13.6228
2023-05-12T07:57:55.089Z,13.4467
2023-05-12T07:58:56.118Z,13.2587
2023-05-12T07:59:56.131Z,12.7059
2023-05-12T08:00:57.262Z,13.3488
2023-05-12T08:01:58.513Z,13.4322
2023-05-12T08:02:58.757Z,13.5432
2023-05-12T08:13:05.203Z,13.1236
2023-05-12T08:14:05.489Z,13.2890
2023-05-12T08:15:06.583Z,14.5903
2023-05-12T08:16:06.752Z,15.2148
2023-05-12T08:17:07.221Z,14.3251
2023-05-12T08:18:08.394Z,15.0851
2023-05-12T08:19:08.476Z,15.8016
2023-05-12T08:20:08.484Z,14.3984
2023-05-12T08:21:09.527Z,14.9934
2023-05-12T08:22:09.617Z,15.4054
2023-05-12T08:23:10.093Z,15.1281
2023-05-12T08:24:11.149Z,16.1704
2023-05-12T08:25:12.665Z,16.5505
2023-05-12T08:26:12.675Z,15.3573
2023-05-12T08:27:13.875Z,14.0471
2023-05-12T08:28:14.895Z,14.6258
2023-05-12T08:29:15.898Z,13.9935
2023-05-12T08:30:16.713Z,13.8351
2023-05-12T08:31:16.853Z,13.9084
2023-05-12T08:32:16.856Z,14.7523
2023-05-12T08:33:17.952Z,14.6130
2023-05-12T08:34:18.933Z,14.3059
2023-05-12T08:35:21.066Z,14.0797
2023-05-12T08:36:20.928Z,13.7424
2023-05-12T08:37:22.014Z,13.7794
2023-05-12T08:38:22.193Z,13.1369
2023-05-12T08:39:23.108Z,13.7347
2023-05-12T08:40:24.235Z,13.5389
2023-05-12T08:41:25.217Z,13.3331
2023-05-12T08:42:26.245Z,13.5328
2023-05-12T08:43:27.152Z,13.2341
2023-05-12T08:44:27.815Z,14.0518
2023-05-12T08:45:28.825Z,15.9441
2023-05-12T08:46:30.150Z,14.4062
2023-05-12T08:47:30.342Z,13.7861
2023-05-12T08:48:30.425Z,14.1821
2023-05-12T08:49:31.476Z,13.5224
2023-05-12T08:50:31.607Z,13.1332
2023-05-12T08:51:32.826Z,14.1176
2023-05-12T09:02:53.911Z,16.6042
2023-05-12T09:03:47.449Z,16.4313
2023-05-12T09:04:48.625Z,14.9439
2023-05-12T09:05:49.078Z,14.7002
2023-05-12T09:06:50.217Z,14.4403
2023-05-12T09:07:50.629Z,15.0982
2023-05-12T09:08:51.815Z,15.6323
2023-05-12T09:09:52.975Z,15.0913
2023-05-12T09:10:53.847Z,16.0132
2023-05-12T09:11:54.883Z,16.9078
2023-05-12T09:12:55.810Z,17.3447
2023-05-12T09:13:57.074Z,15.9770
2023-05-12T09:14:58.188Z,16.4578
2023-05-12T09:15:59.355Z,15.7085
2023-05-12T09:16:59.418Z,16.1088
2023-05-12T09:18:00.011Z,14.7740
2023-05-12T09:19:00.717Z,14.6026
2023-05-12T09:20:00.769Z,14.4099
2023-05-12T09:21:00.819Z,14.2069
2023-05-12T09:22:01.907Z,14.4116
2023-05-12T09:23:02.972Z,14.0764
2023-05-12T09:24:03.974Z,14.1502
2023-05-12T09:25:05.005Z,13.9225
2023-05-12T09:26:06.077Z,13.3847
2023-05-12T09:27:07.136Z,13.4763
2023-05-12T09:28:08.213Z,13.8768
2023-05-12T09:29:09.939Z,14.3971
2023-05-12T09:30:09.471Z,14.2546
2023-05-12T09:31:09.476Z,14.4096
2023-05-12T09:32:10.929Z,14.9200
2023-05-12T09:33:10.976Z,14.8370
2023-05-12T09:34:12.032Z,14.1977
2023-05-12T09:35:13.152Z,14.0363
2023-05-12T09:36:14.174Z,14.6521
2023-05-12T09:37:16.140Z,14.9028
2023-05-12T09:38:17.152Z,14.3952
2023-05-12T09:39:17.653Z,14.6409
2023-05-12T09:40:18.717Z,15.5018
2023-05-12T09:41:19.583Z,15.2358
2023-05-12T09:42:20.625Z,14.5921
2023-05-12T09:43:21.253Z,16.1276
2023-05-12T09:44:22.439Z,18.4424
2023-05-12T09:45:23.053Z,18.8022
2023-05-12T09:46:24.197Z,18.3636
2023-05-12T09:47:24.238Z,17.3189
2023-05-12T09:48:27.466Z,15.6959
2023-05-12T09:49:26.371Z,14.5723
2023-05-12T09:54:30.404Z,14.4580
2023-05-12T09:55:31.604Z,14.5124
2023-05-12T09:56:32.737Z,15.2848
2023-05-12T09:57:33.785Z,14.9029
2023-05-12T09:58:34.945Z,14.9664
2023-05-12T09:59:35.969Z,14.8422
2023-05-12T10:01:43.956Z,14.2456
2023-05-12T10:02:44.155Z,14.1486
2023-05-12T10:03:44.251Z,14.6712
2023-05-12T10:04:44.415Z,14.9425
2023-05-12T10:05:44.993Z,14.6625
2023-05-12T10:06:45.986Z,14.6062
2023-05-12T10:07:46.985Z,14.5812
2023-05-12T10:08:48.161Z,14.8075
2023-05-12T10:09:49.316Z,15.2871
2023-05-12T10:10:50.475Z,16.6534
2023-05-12T10:11:53.537Z,17.5346
2023-05-12T10:12:52.578Z,16.2309
2023-05-12T10:13:53.538Z,15.7729
2023-05-12T10:14:54.363Z,16.2777
2023-05-12T10:15:55.428Z,17.5701
2023-05-12T10:16:56.745Z,17.0033
2023-05-12T10:17:56.956Z,16.8716
2023-05-12T10:18:58.218Z,16.5906
2023-05-12T10:19:58.293Z,17.0463
2023-05-12T10:20:59.151Z,17.3098
2023-05-12T10:22:00.247Z,16.9894
2023-05-12T10:23:01.165Z,18.4179
2023-05-12T10:24:02.248Z,17.9655
2023-05-12T10:25:03.435Z,17.3464
2023-05-12T10:26:03.973Z,18.1759
2023-05-12T10:27:05.132Z,17.5482
2023-05-12T10:28:07.033Z,18.5916
2023-05-12T10:29:06.877Z,19.4134
2023-05-12T10:30:07.321Z,20.8421
2023-05-12T10:31:07.527Z,19.2766
2023-05-12T10:32:07.498Z,19.5450
2023-05-12T10:34:09.310Z,17.6444
2023-05-12T10:35:10.381Z,17.5530
2023-05-12T10:36:11.176Z,18.3894
2023-05-12T10:37:12.247Z,17.8497
2023-05-12T10:38:13.170Z,17.1147
2023-05-12T10:39:14.292Z,17.4262
2023-05-12T10:40:15.528Z,16.8861
2023-05-12T10:41:16.543Z,15.7515
2023-05-12T10:42:16.754Z,15.3572
2023-05-12T10:53:24.408Z,14.9804
2023-05-12T10:54:24.972Z,14.9635
2023-05-12T10:55:25.374Z,15.1958
2023-05-12T10:56:25.617Z,15.0445
2023-05-12T10:57:26.047Z,15.0084
2023-05-12T10:58:26.770Z,14.5431
2023-05-12T10:59:26.384Z,15.3702
2023-05-12T11:00:26.917Z,15.1053
2023-05-12T11:01:27.660Z,15.0024
2023-05-12T11:02:30.666Z,15.1569
2023-05-12T11:03:33.405Z,14.9087
2023-05-12T11:04:33.889Z,15.2637
2023-05-12T11:05:33.694Z,15.7266
2023-05-12T11:06:34.330Z,15.6531
2023-05-12T11:10:35.790Z,15.0293
2023-05-12T11:11:36.303Z,15.1342
2023-05-12T11:12:36.801Z,15.5034
2023-05-12T11:13:36.814Z,15.8437
2023-05-12T11:14:37.783Z,15.4886
2023-05-12T11:15:38.272Z,14.9795
2023-05-12T11:16:39.542Z,15.2674
2023-05-12T11:17:40.637Z,15.6670
2023-05-12T11:18:40.676Z,15.8447
2023-05-12T11:19:42.052Z,15.3784
2023-05-12T11:20:42.921Z,15.7863
2023-05-12T11:21:44.747Z,15.6403
2023-05-12T11:25:46.033Z,15.4301
2023-05-12T11:26:47.002Z,15.3177
2023-05-12T11:27:48.176Z,15.5060
2023-05-12T11:28:49.250Z,15.4080
2023-05-12T11:29:50.267Z,15.7475
2023-05-12T11:30:53.929Z,15.5637
2023-05-12T11:31:52.395Z,15.6902
2023-05-12T11:32:53.498Z,15.7730
2023-05-12T11:34:08.277Z,15.5983
2023-05-12T11:34:55.811Z,14.8868
2023-05-12T11:35:56.608Z,15.0260
2023-05-12T11:36:57.140Z,15.0649
2023-05-12T11:56:13.156Z,18.7676
2023-05-12T11:57:14.201Z,20.0010
2023-05-12T11:58:15.110Z,19.6747
2023-05-12T11:59:16.148Z,18.5375
2023-05-12T12:00:16.512Z,19.3901
2023-05-12T12:01:17.560Z,19.8475
2023-05-12T12:02:20.043Z,20.3671
2023-05-12T12:03:18.923Z,20.7624
2023-05-12T12:04:19.781Z,19.6891
2023-05-12T12:05:20.083Z,19.3562
2023-05-12T12:06:20.216Z,19.5414
2023-05-12T12:07:21.045Z,19.0690
2023-05-12T12:08:21.327Z,18.8152
2023-05-12T12:09:22.435Z,19.6563
2023-05-12T12:10:23.560Z,18.8761
2023-05-12T12:11:24.552Z,18.6037
2023-05-12T12:12:25.572Z,19.2812
2023-05-12T12:13:27.206Z,18.3920
2023-05-12T12:14:28.340Z,17.9438
2023-05-12T12:15:29.401Z,18.6319
2023-05-12T12:16:30.640Z,18.6207
2023-05-12T12:17:31.008Z,19.9815
2023-05-12T12:18:31.508Z,20.4971
2023-05-12T12:19:32.809Z,19.2680
2023-05-12T12:20:33.673Z,18.9726
2023-05-12T12:21:34.639Z,16.9998
2023-05-12T12:22:35.714Z,17.1373
2023-05-12T12:23:49.951Z,17.6505
2023-05-12T12:24:37.217Z,18.0175
2023-05-12T12:25:38.168Z,18.7253
2023-05-12T12:26:39.663Z,18.9759
2023-05-12T12:27:39.426Z,18.4337
2023-05-12T12:28:40.573Z,17.9928
2023-05-12T12:29:41.533Z,18.2182
2023-05-12T12:30:42.566Z,18.1666
2023-05-12T12:31:43.786Z,19.2656
2023-05-12T12:32:44.924Z,19.5425
2023-05-12T12:33:45.888Z,19.1912
2023-05-12T12:34:47.116Z,19.7987
2023-05-12T12:35:47.486Z,19.9347
2023-05-12T12:36:48.575Z,18.5408
2023-05-12T12:37:48.701Z,17.8914
2023-05-12T12:38:49.536Z,18.8112
2023-05-12T12:39:50.567Z,19.0412
2023-05-12T12:40:51.626Z,18.6297
2023-05-12T12:41:52.595Z,19.1184
2023-05-12T12:42:53.515Z,18.7659
2023-05-12T12:43:54.601Z,18.7882
2023-05-12T12:44:55.645Z,17.6542
2023-05-12T12:45:56.744Z,17.7254
2023-05-12T12:46:57.606Z,17.9801
2023-05-12T12:47:58.032Z,17.9899
2023-05-12T12:48:59.164Z,18.0749
2023-05-12T12:50:00.269Z,17.3284
2023-05-12T12:51:00.312Z,16.6581
2023-05-12T12:52:01.544Z,17.2650
2023-05-12T12:53:02.480Z,17.5727
2023-05-12T12:54:03.401Z,18.1345
2023-05-12T12:55:04.402Z,18.0523
2023-05-12T12:56:05.382Z,18.2626
2023-05-12T12:57:06.461Z,18.4030
2023-05-12T12:58:07.676Z,18.5628
2023-05-12T12:59:08.661Z,17.6965
2023-05-12T13:00:09.792Z,17.6814
2023-05-12T13:01:10.828Z,18.9193
2023-05-12T13:02:12.464Z,18.2650
2023-05-12T13:03:12.048Z,18.3071
2023-05-12T13:04:12.171Z,18.5975
2023-05-12T13:05:13.198Z,19.0180
2023-05-12T13:06:14.069Z,18.4730
2023-05-12T13:07:15.116Z,18.4166
2023-05-12T13:08:16.159Z,19.1995
2023-05-12T13:09:19.668Z,19.1318
2023-05-12T13:10:17.119Z,18.6749
2023-05-12T13:11:18.100Z,17.6866
2023-05-12T13:12:19.137Z,18.2328
2023-05-12T13:13:20.042Z,18.1549
2023-05-12T13:14:21.024Z,18.3533
2023-05-12T13:15:22.403Z,17.5221
2023-05-12T13:16:22.490Z,18.1064
2023-05-12T13:17:22.442Z,18.6211
2023-05-12T13:18:23.811Z,18.2501
2023-05-12T13:19:24.632Z,17.6617
2023-05-12T13:20:25.615Z,18.1142
2023-05-12T13:21:26.518Z,18.2503
2023-05-12T13:22:27.530Z,18.1915
2023-05-12T13:23:28.529Z,18.3939
2023-05-12T13:24:29.580Z,18.3736
2023-05-12T13:25:30.729Z,19.2426
2023-05-12T13:26:31.182Z,17.9144
2023-05-12T13:27:32.190Z,19.0324
2023-05-12T13:28:33.204Z,19.0628
2023-05-12T13:29:34.346Z,19.5540
2023-05-12T13:30:35.542Z,19.4654
2023-05-12T13:31:36.510Z,17.3876
2023-05-12T13:32:37.713Z,16.7285
2023-05-12T13:33:38.872Z,16.2579
2023-05-12T13:34:39.813Z,16.2490
2023-05-12T13:35:40.719Z,16.0631
2023-05-12T13:36:41.709Z,16.6463
2023-05-12T13:37:42.841Z,16.3065
2023-05-12T13:38:43.977Z,16.9788
2023-05-12T13:39:45.043Z,18.3332
2023-05-12T13:40:46.196Z,19.0970
2023-05-12T13:41:47.250Z,19.2071
2023-05-12T13:42:48.185Z,18.5705
2023-05-12T13:43:49.269Z,19.0330
2023-05-12T13:44:50.342Z,18.7478
2023-05-12T13:45:50.557Z,19.3919
2023-05-12T13:46:50.744Z,19.3938
2023-05-12T13:47:51.883Z,19.8600
2023-05-12T13:48:51.858Z,19.4288
2023-05-12T13:49:52.955Z,20.1791
2023-05-12T13:50:54.103Z,19.6958
2023-05-12T13:51:55.239Z,19.9210
2023-05-12T13:52:56.509Z,20.5458
2023-05-12T13:53:57.609Z,20.8474
2023-05-12T13:54:59.168Z,19.7875
2023-05-12T13:55:59.329Z,19.6198
2023-05-12T13:57:00.315Z,19.5356
2023-05-12T13:58:01.299Z,18.7714
2023-05-12T13:59:02.336Z,18.8156
2023-05-12T14:00:03.281Z,19.4595
2023-05-12T14:01:04.986Z,19.4582
2023-05-12T14:02:06.111Z,19.9012
2023-05-12T14:03:07.253Z,18.9726
2023-05-12T14:04:08.510Z,18.8771
2023-05-12T14:05:08.806Z,19.8891
2023-05-12T14:06:09.953Z,19.6069
2023-05-12T14:07:10.668Z,19.8983
2023-05-12T14:08:11.665Z,20.7684
2023-05-12T14:09:12.934Z,21.1393
2023-05-12T14:10:13.722Z,21.0259
2023-05-12T14:11:14.736Z,19.6711
2023-05-12T14:12:15.900Z,18.8395
2023-05-12T14:13:17.034Z,19.2561
2023-05-12T14:14:18.106Z,17.8714
2023-05-12T14:15:32.286Z,17.3758
2023-05-12T14:16:23.882Z,17.5525
2023-05-12T14:17:24.036Z,17.6590
2023-05-12T14:18:24.098Z,17.3340
2023-05-12T14:19:24.203Z,17.1298
2023-05-12T14:20:25.476Z,17.2509
2023-05-12T14:21:25.198Z,16.7597
2023-05-12T14:22:26.813Z,16.5957
2023-05-12T14:23:27.394Z,16.4979
2023-05-12T14:24:28.365Z,16.6193
2023-05-12T14:25:29.501Z,16.5397
2023-05-12T14:26:30.678Z,16.3333
2023-05-12T14:27:31.827Z,16.3218
2023-05-12T14:28:32.351Z,16.4968
2023-05-12T14:29:32.984Z,16.7152
2023-05-12T14:30:33.004Z,16.4865
2023-05-12T14:31:34.212Z,16.5410
2023-05-12T14:32:35.397Z,16.7527
2023-05-12T14:33:36.453Z,16.7378
2023-05-12T14:34:37.626Z,16.6310
2023-05-12T14:35:37.994Z,16.2879
2023-05-12T14:36:39.087Z,16.3863
2023-05-12T14:37:41.229Z,16.3420
2023-05-12T14:38:41.580Z,16.6180
2023-05-12T14:39:42.623Z,16.9388
2023-05-12T14:40:44.316Z,17.0797
2023-05-12T14:47:49.701Z,16.1325
2023-05-12T14:48:50.907Z,16.4024
2023-05-12T14:49:50.892Z,16.6251
2023-05-12T14:50:52.007Z,16.3786
2023-05-12T14:51:53.051Z,16.2500
2023-05-12T14:52:54.113Z,17.0576
2023-05-12T14:53:55.288Z,18.2694
2023-05-12T14:54:55.392Z,18.8906
2023-05-12T14:55:56.189Z,19.1119